sensor_id;sensor_type;location;lat;lon;timestamp;pressure;altitude;pressure_sealevel;temperature;humidity
25944;BME280;13742;49.306;8.636;2023-04-30T00:00:16;100871.30;;;13.31;74.09
25944;BME280;13742;49.306;8.636;2023-04-30T00:01:16;100869.23;;;13.30;74.09
25944;BME280;13742;49.306;8.636;2023-04-30T00:02:16;100872.41;;;13.31;74.26
25944;BME280;13742;49.306;8.636;2023-04-30T00:03:16;100868.25;;;13.31;74.36
25944;BME280;13742;49.306;8.636;2023-04-30T00:04:16;100866.84;;;13.31;74.46
25944;BME280;13742;49.306;8.636;2023-04-30T00:05:16;100867.61;;;13.32;74.49
25944;BME280;13742;49.306;8.636;2023-04-30T00:06:16;100868.33;;;13.32;74.59
25944;BME280;13742;49.306;8.636;2023-04-30T00:07:16;100868.33;;;13.32;74.69
25944;BME280;13742;49.306;8.636;2023-04-30T00:08:16;100869.86;;;13.34;74.84
25944;BME280;13742;49.306;8.636;2023-04-30T00:09:16;100872.38;;;13.34;75.16
25944;BME280;13742;49.306;8.636;2023-04-30T00:10:16;100872.41;;;13.34;75.22
25944;BME280;13742;49.306;8.636;2023-04-30T00:11:16;100871.82;;;13.35;75.15
25944;BME280;13742;49.306;8.636;2023-04-30T00:12:16;100876.05;;;13.36;75.29
25944;BME280;13742;49.306;8.636;2023-04-30T00:13:17;100879.09;;;13.36;75.26
25944;BME280;13742;49.306;8.636;2023-04-30T00:14:16;100879.18;;;13.38;75.30
25944;BME280;13742;49.306;8.636;2023-04-30T00:15:16;100880.40;;;13.37;75.36
25944;BME280;13742;49.306;8.636;2023-04-30T00:16:16;100880.09;;;13.39;75.41
25944;BME280;13742;49.306;8.636;2023-04-30T00:17:16;100884.70;;;13.39;75.47
25944;BME280;13742;49.306;8.636;2023-04-30T00:18:16;100883.48;;;13.40;75.49
25944;BME280;13742;49.306;8.636;2023-04-30T00:19:16;100882.92;;;13.40;75.50
25944;BME280;13742;49.306;8.636;2023-04-30T00:20:16;100884.80;;;13.42;75.41
25944;BME280;13742;49.306;8.636;2023-04-30T00:21:16;100886.47;;;13.40;74.82
25944;BME280;13742;49.306;8.636;2023-04-30T00:22:16;100886.76;;;13.38;75.42
25944;BME280;13742;49.306;8.636;2023-04-30T00:23:16;100886.63;;;13.36;76.29
25944;BME280;13742;49.306;8.636;2023-04-30T00:24:16;100886.17;;;13.34;76.54
25944;BME280;13742;49.306;8.636;2023-04-30T00:25:16;100887.08;;;13.31;76.43
25944;BME280;13742;49.306;8.636;2023-04-30T00:26:16;100889.11;;;13.29;77.20
25944;BME280;13742;49.306;8.636;2023-04-30T00:27:16;100892.03;;;13.26;77.89
25944;BME280;13742;49.306;8.636;2023-04-30T00:28:16;100891.39;;;13.19;78.40
25944;BME280;13742;49.306;8.636;2023-04-30T00:29:16;100897.47;;;13.12;79.37
25944;BME280;13742;49.306;8.636;2023-04-30T00:30:16;100894.46;;;13.10;79.40
25944;BME280;13742;49.306;8.636;2023-04-30T00:31:16;100894.90;;;13.11;79.60
25944;BME280;13742;49.306;8.636;2023-04-30T00:32:16;100894.45;;;13.12;79.27
25944;BME280;13742;49.306;8.636;2023-04-30T00:33:16;100896.38;;;13.15;78.90
25944;BME280;13742;49.306;8.636;2023-04-30T00:34:16;100897.13;;;13.16;78.76
25944;BME280;13742;49.306;8.636;2023-04-30T00:35:16;100896.47;;;13.16;78.86
25944;BME280;13742;49.306;8.636;2023-04-30T00:36:16;100896.30;;;13.16;78.80
25944;BME280;13742;49.306;8.636;2023-04-30T00:37:16;100894.33;;;13.14;78.79
25944;BME280;13742;49.306;8.636;2023-04-30T00:38:16;100893.75;;;13.13;78.69
25944;BME280;13742;49.306;8.636;2023-04-30T00:39:16;100897.89;;;13.13;78.58
25944;BME280;13742;49.306;8.636;2023-04-30T00:40:16;100898.66;;;13.11;78.85
25944;BME280;13742;49.306;8.636;2023-04-30T00:41:16;100898.11;;;13.10;78.74
25944;BME280;13742;49.306;8.636;2023-04-30T00:42:16;100892.80;;;13.10;78.89
25944;BME280;13742;49.306;8.636;2023-04-30T00:43:16;100896.92;;;13.10;80.34
25944;BME280;13742;49.306;8.636;2023-04-30T00:44:16;100893.08;;;12.96;81.30
25944;BME280;13742;49.306;8.636;2023-04-30T00:45:21;100891.20;;;13.01;81.09
25944;BME280;13742;49.306;8.636;2023-04-30T00:46:16;100892.06;;;12.95;81.38
25944;BME280;13742;49.306;8.636;2023-04-30T00:47:16;100889.41;;;13.00;81.03
25944;BME280;13742;49.306;8.636;2023-04-30T00:48:16;100889.71;;;13.01;80.55
25944;BME280;13742;49.306;8.636;2023-04-30T00:49:16;100891.61;;;13.02;80.65
25944;BME280;13742;49.306;8.636;2023-04-30T00:50:16;100890.03;;;13.03;80.86
25944;BME280;13742;49.306;8.636;2023-04-30T00:51:16;100890.75;;;13.03;81.17
25944;BME280;13742;49.306;8.636;2023-04-30T00:52:16;100890.86;;;13.02;80.71
25944;BME280;13742;49.306;8.636;2023-04-30T00:53:16;100890.47;;;13.03;80.56
25944;BME280;13742;49.306;8.636;2023-04-30T00:54:16;100890.47;;;13.03;80.39
25944;BME280;13742;49.306;8.636;2023-04-30T00:55:16;100888.45;;;13.03;80.62
25944;BME280;13742;49.306;8.636;2023-04-30T00:56:16;100886.05;;;13.03;80.40
25944;BME280;13742;49.306;8.636;2023-04-30T00:57:16;100883.45;;;13.03;80.37
25944;BME280;13742;49.306;8.636;2023-04-30T00:58:16;100885.59;;;13.05;81.52
25944;BME280;13742;49.306;8.636;2023-04-30T00:59:16;100879.16;;;12.96;82.23
25944;BME280;13742;49.306;8.636;2023-04-30T01:00:16;100881.61;;;12.86;83.05
25944;BME280;13742;49.306;8.636;2023-04-30T01:01:16;100879.42;;;12.93;82.09
25944;BME280;13742;49.306;8.636;2023-04-30T01:02:16;100879.25;;;12.95;81.88
25944;BME280;13742;49.306;8.636;2023-04-30T01:03:16;100882.41;;;12.96;81.57
25944;BME280;13742;49.306;8.636;2023-04-30T01:04:16;100880.78;;;12.97;81.88
25944;BME280;13742;49.306;8.636;2023-04-30T01:05:16;100883.69;;;12.96;81.80
25944;BME280;13742;49.306;8.636;2023-04-30T01:06:16;100879.25;;;12.95;82.15
25944;BME280;13742;49.306;8.636;2023-04-30T01:07:16;100883.19;;;12.96;81.92
25944;BME280;13742;49.306;8.636;2023-04-30T01:08:16;100884.20;;;12.97;81.48
25944;BME280;13742;49.306;8.636;2023-04-30T01:09:16;100884.17;;;12.98;81.82
25944;BME280;13742;49.306;8.636;2023-04-30T01:10:16;100883.75;;;12.98;82.26
25944;BME280;13742;49.306;8.636;2023-04-30T01:12:19;100883.92;;;12.98;81.46
25944;BME280;13742;49.306;8.636;2023-04-30T01:13:17;100886.05;;;13.00;81.67
25944;BME280;13742;49.306;8.636;2023-04-30T01:14:18;100882.49;;;13.01;82.46
25944;BME280;13742;49.306;8.636;2023-04-30T01:15:37;100883.81;;;12.99;82.85
25944;BME280;13742;49.306;8.636;2023-04-30T01:16:26;100880.77;;;12.89;83.40
25944;BME280;13742;49.306;8.636;2023-04-30T01:17:17;100883.69;;;12.91;83.30
25944;BME280;13742;49.306;8.636;2023-04-30T01:20:16;100879.81;;;12.96;82.14
25944;BME280;13742;49.306;8.636;2023-04-30T01:21:17;100881.33;;;12.97;83.02
25944;BME280;13742;49.306;8.636;2023-04-30T01:26:26;100876.04;;;12.95;82.59
25944;BME280;13742;49.306;8.636;2023-04-30T01:28:19;100877.74;;;12.97;83.13
25944;BME280;13742;49.306;8.636;2023-04-30T01:29:17;100874.76;;;12.97;83.03
25944;BME280;13742;49.306;8.636;2023-04-30T01:30:16;100873.36;;;12.96;82.62
25944;BME280;13742;49.306;8.636;2023-04-30T01:31:19;100876.22;;;12.98;83.38
25944;BME280;13742;49.306;8.636;2023-04-30T01:32:16;100874.09;;;12.97;82.91
25944;BME280;13742;49.306;8.636;2023-04-30T01:33:16;100875.00;;;12.98;82.52
25944;BME280;13742;49.306;8.636;2023-04-30T01:34:16;100875.28;;;12.98;82.52
25944;BME280;13742;49.306;8.636;2023-04-30T01:35:16;100873.89;;;12.98;82.47
25944;BME280;13742;49.306;8.636;2023-04-30T01:37:38;100874.47;;;12.99;82.37
25944;BME280;13742;49.306;8.636;2023-04-30T01:41:22;100872.06;;;13.00;81.72
25944;BME280;13742;49.306;8.636;2023-04-30T01:42:19;100868.97;;;13.00;81.67
25944;BME280;13742;49.306;8.636;2023-04-30T01:45:18;100868.05;;;13.01;81.23
25944;BME280;13742;49.306;8.636;2023-04-30T01:46:23;100870.11;;;13.02;81.09
25944;BME280;13742;49.306;8.636;2023-04-30T01:47:20;100868.41;;;13.02;80.34
25944;BME280;13742;49.306;8.636;2023-04-30T01:50:23;100871.47;;;13.01;79.43
25944;BME280;13742;49.306;8.636;2023-04-30T01:51:24;100871.44;;;13.02;78.86
25944;BME280;13742;49.306;8.636;2023-04-30T01:53:20;100873.98;;;13.02;78.33
25944;BME280;13742;49.306;8.636;2023-04-30T01:54:37;100875.01;;;13.01;78.39
25944;BME280;13742;49.306;8.636;2023-04-30T01:55:18;100878.11;;;13.01;77.94
25944;BME280;13742;49.306;8.636;2023-04-30T01:58:16;100876.84;;;13.01;77.56
25944;BME280;13742;49.306;8.636;2023-04-30T01:59:16;100877.30;;;13.02;77.70
25944;BME280;13742;49.306;8.636;2023-04-30T02:00:16;100881.61;;;13.02;77.35
25944;BME280;13742;49.306;8.636;2023-04-30T02:02:16;100880.68;;;12.99;78.89
25944;BME280;13742;49.306;8.636;2023-04-30T02:03:16;100882.83;;;12.99;79.73
25944;BME280;13742;49.306;8.636;2023-04-30T02:04:16;100883.26;;;12.98;79.29
25944;BME280;13742;49.306;8.636;2023-04-30T02:05:16;100879.37;;;12.98;81.68
25944;BME280;13742;49.306;8.636;2023-04-30T02:06:16;100881.81;;;12.96;82.17
25944;BME280;13742;49.306;8.636;2023-04-30T02:07:19;100883.89;;;12.95;82.39
25944;BME280;13742;49.306;8.636;2023-04-30T02:08:16;100884.22;;;12.95;81.94
25944;BME280;13742;49.306;8.636;2023-04-30T02:09:16;100881.60;;;12.94;81.56
25944;BME280;13742;49.306;8.636;2023-04-30T02:10:20;100880.86;;;12.93;81.44
25944;BME280;13742;49.306;8.636;2023-04-30T02:11:16;100879.22;;;12.91;81.44
25944;BME280;13742;49.306;8.636;2023-04-30T02:12:16;100876.06;;;12.91;81.27
25944;BME280;13742;49.306;8.636;2023-04-30T02:13:16;100877.83;;;12.91;81.23
25944;BME280;13742;49.306;8.636;2023-04-30T02:14:16;100880.38;;;12.91;81.25
25944;BME280;13742;49.306;8.636;2023-04-30T02:15:16;100877.61;;;12.91;81.34
25944;BME280;13742;49.306;8.636;2023-04-30T02:16:16;100879.78;;;12.92;82.07
25944;BME280;13742;49.306;8.636;2023-04-30T02:17:16;100875.37;;;12.92;82.78
25944;BME280;13742;49.306;8.636;2023-04-30T02:18:16;100878.01;;;12.88;81.30
25944;BME280;13742;49.306;8.636;2023-04-30T02:19:16;100878.76;;;12.87;80.93
25944;BME280;13742;49.306;8.636;2023-04-30T02:20:16;100877.89;;;12.88;81.14
25944;BME280;13742;49.306;8.636;2023-04-30T02:21:17;100874.39;;;12.88;81.17
25944;BME280;13742;49.306;8.636;2023-04-30T02:22:16;100873.34;;;12.87;81.06
25944;BME280;13742;49.306;8.636;2023-04-30T02:23:16;100874.00;;;12.85;81.44
25944;BME280;13742;49.306;8.636;2023-04-30T02:24:16;100877.70;;;12.84;81.25
25944;BME280;13742;49.306;8.636;2023-04-30T02:25:16;100874.44;;;12.84;81.65
25944;BME280;13742;49.306;8.636;2023-04-30T02:26:16;100878.23;;;12.84;81.42
25944;BME280;13742;49.306;8.636;2023-04-30T02:27:16;100875.83;;;12.83;81.45
25944;BME280;13742;49.306;8.636;2023-04-30T02:28:16;100876.02;;;12.83;81.90
25944;BME280;13742;49.306;8.636;2023-04-30T02:29:16;100878.31;;;12.83;81.79
25944;BME280;13742;49.306;8.636;2023-04-30T02:30:16;100874.72;;;12.83;81.69
25944;BME280;13742;49.306;8.636;2023-04-30T02:31:16;100872.88;;;12.82;81.40
25944;BME280;13742;49.306;8.636;2023-04-30T02:32:16;100871.73;;;12.83;81.50
25944;BME280;13742;49.306;8.636;2023-04-30T02:33:16;100870.15;;;12.80;82.37
25944;BME280;13742;49.306;8.636;2023-04-30T02:34:16;100867.95;;;12.79;81.73
25944;BME280;13742;49.306;8.636;2023-04-30T02:35:16;100870.19;;;12.80;81.73
25944;BME280;13742;49.306;8.636;2023-04-30T02:36:16;100868.52;;;12.80;81.59
25944;BME280;13742;49.306;8.636;2023-04-30T02:37:16;100866.76;;;12.79;81.54
25944;BME280;13742;49.306;8.636;2023-04-30T02:38:16;100866.20;;;12.80;81.53
25944;BME280;13742;49.306;8.636;2023-04-30T02:39:16;100867.14;;;12.80;81.37
25944;BME280;13742;49.306;8.636;2023-04-30T02:40:16;100869.33;;;12.78;80.14
25944;BME280;13742;49.306;8.636;2023-04-30T02:41:16;100871.03;;;12.76;79.47
25944;BME280;13742;49.306;8.636;2023-04-30T02:42:16;100868.55;;;12.64;78.91
25944;BME280;13742;49.306;8.636;2023-04-30T02:43:16;100870.20;;;12.66;79.31
25944;BME280;13742;49.306;8.636;2023-04-30T02:44:16;100870.73;;;12.68;79.42
25944;BME280;13742;49.306;8.636;2023-04-30T02:45:16;100873.27;;;12.70;79.48
25944;BME280;13742;49.306;8.636;2023-04-30T02:46:17;100870.44;;;12.72;80.06
25944;BME280;13742;49.306;8.636;2023-04-30T02:47:16;100866.93;;;12.73;80.36
25944;BME280;13742;49.306;8.636;2023-04-30T02:48:16;100868.75;;;12.73;80.01
25944;BME280;13742;49.306;8.636;2023-04-30T02:49:16;100869.80;;;12.73;80.10
25944;BME280;13742;49.306;8.636;2023-04-30T02:50:16;100868.55;;;12.74;80.42
25944;BME280;13742;49.306;8.636;2023-04-30T02:51:16;100866.06;;;12.74;80.56
25944;BME280;13742;49.306;8.636;2023-04-30T02:52:16;100868.11;;;12.74;80.24
25944;BME280;13742;49.306;8.636;2023-04-30T02:53:16;100869.22;;;12.74;80.26
25944;BME280;13742;49.306;8.636;2023-04-30T02:54:16;100870.19;;;12.73;80.02
25944;BME280;13742;49.306;8.636;2023-04-30T02:55:16;100865.98;;;12.73;80.36
25944;BME280;13742;49.306;8.636;2023-04-30T02:56:16;100868.72;;;12.74;80.74
25944;BME280;13742;49.306;8.636;2023-04-30T02:57:16;100865.33;;;12.73;80.62
25944;BME280;13742;49.306;8.636;2023-04-30T02:58:16;100863.65;;;12.72;80.67
25944;BME280;13742;49.306;8.636;2023-04-30T02:59:16;100865.27;;;12.73;81.37
25944;BME280;13742;49.306;8.636;2023-04-30T03:00:16;100864.93;;;12.59;82.75
25944;BME280;13742;49.306;8.636;2023-04-30T03:01:16;100866.61;;;12.59;83.33
25944;BME280;13742;49.306;8.636;2023-04-30T03:02:20;100865.71;;;12.57;83.08
25944;BME280;13742;49.306;8.636;2023-04-30T03:03:16;100865.83;;;12.61;82.45
25944;BME280;13742;49.306;8.636;2023-04-30T03:04:16;100867.27;;;12.61;82.04
25944;BME280;13742;49.306;8.636;2023-04-30T03:05:16;100867.09;;;12.61;81.96
25944;BME280;13742;49.306;8.636;2023-04-30T03:06:16;100871.59;;;12.62;81.70
25944;BME280;13742;49.306;8.636;2023-04-30T03:07:16;100869.94;;;12.62;81.76
25944;BME280;13742;49.306;8.636;2023-04-30T03:08:16;100869.61;;;12.62;81.67
25944;BME280;13742;49.306;8.636;2023-04-30T03:09:16;100871.62;;;12.64;82.70
25944;BME280;13742;49.306;8.636;2023-04-30T03:10:18;100874.44;;;12.64;82.28
25944;BME280;13742;49.306;8.636;2023-04-30T03:11:16;100875.90;;;12.62;82.12
25944;BME280;13742;49.306;8.636;2023-04-30T03:12:16;100878.55;;;12.62;81.87
25944;BME280;13742;49.306;8.636;2023-04-30T03:13:16;100874.16;;;12.61;81.85
25944;BME280;13742;49.306;8.636;2023-04-30T03:14:16;100877.00;;;12.62;81.83
25944;BME280;13742;49.306;8.636;2023-04-30T03:15:16;100875.57;;;12.62;82.11
25944;BME280;13742;49.306;8.636;2023-04-30T03:16:16;100873.91;;;12.62;81.73
25944;BME280;13742;49.306;8.636;2023-04-30T03:17:16;100873.61;;;12.63;81.67
25944;BME280;13742;49.306;8.636;2023-04-30T03:18:16;100878.02;;;12.63;81.58
25944;BME280;13742;49.306;8.636;2023-04-30T03:19:20;100874.88;;;12.63;81.71
25944;BME280;13742;49.306;8.636;2023-04-30T03:20:16;100875.14;;;12.65;82.19
25944;BME280;13742;49.306;8.636;2023-04-30T03:21:16;100876.98;;;12.66;82.34
25944;BME280;13742;49.306;8.636;2023-04-30T03:22:18;100876.66;;;12.64;82.31
25944;BME280;13742;49.306;8.636;2023-04-30T03:23:16;100874.53;;;12.60;82.71
25944;BME280;13742;49.306;8.636;2023-04-30T03:24:16;100876.62;;;12.62;82.22
25944;BME280;13742;49.306;8.636;2023-04-30T03:25:16;100876.84;;;12.63;82.08
25944;BME280;13742;49.306;8.636;2023-04-30T03:26:16;100875.65;;;12.63;82.39
25944;BME280;13742;49.306;8.636;2023-04-30T03:27:16;100874.59;;;12.63;82.29
25944;BME280;13742;49.306;8.636;2023-04-30T03:28:16;100874.24;;;12.62;81.90
25944;BME280;13742;49.306;8.636;2023-04-30T03:29:16;100879.86;;;12.61;81.60
25944;BME280;13742;49.306;8.636;2023-04-30T03:30:16;100876.70;;;12.61;81.89
25944;BME280;13742;49.306;8.636;2023-04-30T03:31:16;100877.26;;;12.61;82.52
25944;BME280;13742;49.306;8.636;2023-04-30T03:32:16;100878.73;;;12.53;82.40
25944;BME280;13742;49.306;8.636;2023-04-30T03:33:16;100876.73;;;12.47;82.69
25944;BME280;13742;49.306;8.636;2023-04-30T03:34:16;100875.93;;;12.41;83.84
25944;BME280;13742;49.306;8.636;2023-04-30T03:35:18;100875.64;;;12.44;84.21
25944;BME280;13742;49.306;8.636;2023-04-30T03:36:16;100875.98;;;12.45;84.16
25944;BME280;13742;49.306;8.636;2023-04-30T03:37:16;100878.53;;;12.45;84.00
25944;BME280;13742;49.306;8.636;2023-04-30T03:38:16;100876.41;;;12.47;84.04
25944;BME280;13742;49.306;8.636;2023-04-30T03:39:16;100872.68;;;12.48;84.01
25944;BME280;13742;49.306;8.636;2023-04-30T03:40:16;100866.34;;;12.46;83.37
25944;BME280;13742;49.306;8.636;2023-04-30T03:41:16;100867.24;;;12.47;83.58
25944;BME280;13742;49.306;8.636;2023-04-30T03:42:16;100870.56;;;12.47;83.67
25944;BME280;13742;49.306;8.636;2023-04-30T03:43:16;100868.16;;;12.48;83.58
25944;BME280;13742;49.306;8.636;2023-04-30T03:44:16;100865.97;;;12.47;83.23
25944;BME280;13742;49.306;8.636;2023-04-30T03:45:16;100869.03;;;12.48;83.08
25944;BME280;13742;49.306;8.636;2023-04-30T03:46:16;100871.41;;;12.47;82.92
25944;BME280;13742;49.306;8.636;2023-04-30T03:47:16;100868.92;;;12.47;82.66
25944;BME280;13742;49.306;8.636;2023-04-30T03:48:16;100870.39;;;12.47;82.71
25944;BME280;13742;49.306;8.636;2023-04-30T03:49:16;100871.41;;;12.48;82.48
25944;BME280;13742;49.306;8.636;2023-04-30T03:50:16;100869.97;;;12.48;82.39
25944;BME280;13742;49.306;8.636;2023-04-30T03:51:17;100865.85;;;12.48;82.53
25944;BME280;13742;49.306;8.636;2023-04-30T03:52:16;100867.63;;;12.49;82.57
25944;BME280;13742;49.306;8.636;2023-04-30T03:53:16;100865.41;;;12.49;82.43
25944;BME280;13742;49.306;8.636;2023-04-30T03:54:16;100861.71;;;12.49;82.72
25944;BME280;13742;49.306;8.636;2023-04-30T03:55:16;100865.16;;;12.50;82.55
25944;BME280;13742;49.306;8.636;2023-04-30T03:56:16;100866.29;;;12.51;82.45
25944;BME280;13742;49.306;8.636;2023-04-30T03:57:16;100863.83;;;12.51;82.99
25944;BME280;13742;49.306;8.636;2023-04-30T03:58:16;100864.71;;;12.52;83.10
25944;BME280;13742;49.306;8.636;2023-04-30T03:59:16;100865.16;;;12.51;82.83
25944;BME280;13742;49.306;8.636;2023-04-30T04:00:16;100866.78;;;12.53;83.12
25944;BME280;13742;49.306;8.636;2023-04-30T04:01:16;100866.56;;;12.53;83.42
25944;BME280;13742;49.306;8.636;2023-04-30T04:02:16;100866.94;;;12.53;83.09
25944;BME280;13742;49.306;8.636;2023-04-30T04:03:16;100865.05;;;12.52;82.71
25944;BME280;13742;49.306;8.636;2023-04-30T04:04:16;100863.99;;;12.51;82.57
25944;BME280;13742;49.306;8.636;2023-04-30T04:05:16;100865.27;;;12.50;82.63
25944;BME280;13742;49.306;8.636;2023-04-30T04:06:16;100864.41;;;12.51;82.66
25944;BME280;13742;49.306;8.636;2023-04-30T04:07:16;100857.78;;;12.51;83.00
25944;BME280;13742;49.306;8.636;2023-04-30T04:08:16;100856.66;;;12.50;83.14
25944;BME280;13742;49.306;8.636;2023-04-30T04:09:16;100858.10;;;12.48;81.19
25944;BME280;13742;49.306;8.636;2023-04-30T04:10:16;100856.91;;;12.35;82.43
25944;BME280;13742;49.306;8.636;2023-04-30T04:11:16;100855.11;;;12.38;81.25
25944;BME280;13742;49.306;8.636;2023-04-30T04:12:16;100857.25;;;12.40;81.46
25944;BME280;13742;49.306;8.636;2023-04-30T04:13:16;100858.02;;;12.40;81.60
25944;BME280;13742;49.306;8.636;2023-04-30T04:14:16;100861.06;;;12.40;81.64
25944;BME280;13742;49.306;8.636;2023-04-30T04:15:16;100864.56;;;12.41;81.49
25944;BME280;13742;49.306;8.636;2023-04-30T04:16:16;100862.02;;;12.41;80.85
25944;BME280;13742;49.306;8.636;2023-04-30T04:17:16;100863.02;;;12.41;80.75
25944;BME280;13742;49.306;8.636;2023-04-30T04:18:16;100862.63;;;12.41;80.94
25944;BME280;13742;49.306;8.636;2023-04-30T04:19:16;100864.59;;;12.33;77.88
25944;BME280;13742;49.306;8.636;2023-04-30T04:20:16;100866.30;;;12.35;78.13
25944;BME280;13742;49.306;8.636;2023-04-30T04:21:16;100867.03;;;12.36;77.98
25944;BME280;13742;49.306;8.636;2023-04-30T04:22:16;100867.89;;;12.35;78.28
25944;BME280;13742;49.306;8.636;2023-04-30T04:23:16;100869.02;;;12.36;78.57
25944;BME280;13742;49.306;8.636;2023-04-30T04:24:16;100872.28;;;12.36;78.67
25944;BME280;13742;49.306;8.636;2023-04-30T04:25:17;100873.02;;;12.37;78.43
25944;BME280;13742;49.306;8.636;2023-04-30T04:26:18;100876.72;;;12.37;78.36
25944;BME280;13742;49.306;8.636;2023-04-30T04:27:16;100879.61;;;12.33;76.83
25944;BME280;13742;49.306;8.636;2023-04-30T04:28:16;100883.34;;;12.35;77.59
25944;BME280;13742;49.306;8.636;2023-04-30T04:29:16;100880.73;;;12.36;78.05
25944;BME280;13742;49.306;8.636;2023-04-30T04:30:16;100881.14;;;12.37;78.35
25944;BME280;13742;49.306;8.636;2023-04-30T04:31:16;100883.42;;;12.38;78.46
25944;BME280;13742;49.306;8.636;2023-04-30T04:32:16;100884.64;;;12.38;78.13
25944;BME280;13742;49.306;8.636;2023-04-30T04:33:16;100881.08;;;12.37;77.70
25944;BME280;13742;49.306;8.636;2023-04-30T04:34:16;100882.98;;;12.38;77.98
25944;BME280;13742;49.306;8.636;2023-04-30T04:35:16;100879.95;;;12.38;78.01
25944;BME280;13742;49.306;8.636;2023-04-30T04:36:16;100880.30;;;12.39;77.87
25944;BME280;13742;49.306;8.636;2023-04-30T04:37:16;100877.69;;;12.38;77.94
25944;BME280;13742;49.306;8.636;2023-04-30T04:38:16;100880.22;;;12.38;77.49
25944;BME280;13742;49.306;8.636;2023-04-30T04:39:16;100884.02;;;12.40;77.63
25944;BME280;13742;49.306;8.636;2023-04-30T04:40:16;100883.20;;;12.40;77.38
25944;BME280;13742;49.306;8.636;2023-04-30T04:41:17;100885.78;;;12.42;77.39
25944;BME280;13742;49.306;8.636;2023-04-30T04:42:17;100883.53;;;12.40;76.77
25944;BME280;13742;49.306;8.636;2023-04-30T04:43:16;100885.45;;;12.42;76.96
25944;BME280;13742;49.306;8.636;2023-04-30T04:44:17;100886.50;;;12.42;76.74
25944;BME280;13742;49.306;8.636;2023-04-30T04:45:16;100882.64;;;12.40;76.21
25944;BME280;13742;49.306;8.636;2023-04-30T04:46:16;100883.52;;;12.37;75.79
25944;BME280;13742;49.306;8.636;2023-04-30T04:47:18;100884.80;;;12.38;76.43
25944;BME280;13742;49.306;8.636;2023-04-30T04:48:16;100881.81;;;12.40;76.26
25944;BME280;13742;49.306;8.636;2023-04-30T04:49:16;100887.61;;;12.40;76.60
25944;BME280;13742;49.306;8.636;2023-04-30T04:50:16;100889.43;;;12.42;76.19
25944;BME280;13742;49.306;8.636;2023-04-30T04:51:16;100890.81;;;12.40;76.06
25944;BME280;13742;49.306;8.636;2023-04-30T04:52:16;100888.61;;;12.40;76.35
25944;BME280;13742;49.306;8.636;2023-04-30T04:53:16;100891.36;;;12.42;76.22
25944;BME280;13742;49.306;8.636;2023-04-30T04:54:16;100888.55;;;12.42;76.13
25944;BME280;13742;49.306;8.636;2023-04-30T04:55:16;100887.14;;;12.41;75.82
25944;BME280;13742;49.306;8.636;2023-04-30T04:56:16;100889.30;;;12.41;75.96
25944;BME280;13742;49.306;8.636;2023-04-30T04:57:16;100888.16;;;12.42;76.01
25944;BME280;13742;49.306;8.636;2023-04-30T04:58:16;100886.86;;;12.43;76.10
25944;BME280;13742;49.306;8.636;2023-04-30T04:59:16;100886.06;;;12.42;76.12
25944;BME280;13742;49.306;8.636;2023-04-30T05:00:17;100886.00;;;12.43;76.55
25944;BME280;13742;49.306;8.636;2023-04-30T05:01:16;100885.08;;;12.44;76.17
25944;BME280;13742;49.306;8.636;2023-04-30T05:02:16;100887.48;;;12.44;76.26
25944;BME280;13742;49.306;8.636;2023-04-30T05:03:16;100890.91;;;12.46;76.29
25944;BME280;13742;49.306;8.636;2023-04-30T05:04:16;100888.62;;;12.45;76.21
25944;BME280;13742;49.306;8.636;2023-04-30T05:05:16;100888.48;;;12.46;76.33
25944;BME280;13742;49.306;8.636;2023-04-30T05:06:16;100891.26;;;12.47;76.39
25944;BME280;13742;49.306;8.636;2023-04-30T05:07:16;100892.11;;;12.48;76.34
25944;BME280;13742;49.306;8.636;2023-04-30T05:08:16;100887.89;;;12.49;76.44
25944;BME280;13742;49.306;8.636;2023-04-30T05:09:16;100888.84;;;12.50;76.61
25944;BME280;13742;49.306;8.636;2023-04-30T05:10:16;100888.45;;;12.51;76.64
25944;BME280;13742;49.306;8.636;2023-04-30T05:11:16;100886.47;;;12.50;76.02
25944;BME280;13742;49.306;8.636;2023-04-30T05:12:16;100893.75;;;12.51;76.30
25944;BME280;13742;49.306;8.636;2023-04-30T05:13:16;100888.18;;;12.52;76.33
25944;BME280;13742;49.306;8.636;2023-04-30T05:14:16;100888.34;;;12.52;76.13
25944;BME280;13742;49.306;8.636;2023-04-30T05:15:16;100885.33;;;12.53;76.11
25944;BME280;13742;49.306;8.636;2023-04-30T05:16:16;100888.50;;;12.54;76.31
25944;BME280;13742;49.306;8.636;2023-04-30T05:17:16;100888.08;;;12.54;76.04
25944;BME280;13742;49.306;8.636;2023-04-30T05:18:16;100891.78;;;12.55;75.88
25944;BME280;13742;49.306;8.636;2023-04-30T05:19:16;100890.19;;;12.54;76.13
25944;BME280;13742;49.306;8.636;2023-04-30T05:20:16;100893.38;;;12.56;76.14
25944;BME280;13742;49.306;8.636;2023-04-30T05:21:16;100893.02;;;12.58;76.17
25944;BME280;13742;49.306;8.636;2023-04-30T05:22:16;100892.62;;;12.59;76.33
25944;BME280;13742;49.306;8.636;2023-04-30T05:23:16;100893.00;;;12.60;76.02
25944;BME280;13742;49.306;8.636;2023-04-30T05:24:16;100891.26;;;12.60;75.97
25944;BME280;13742;49.306;8.636;2023-04-30T05:25:16;100891.95;;;12.61;76.02
25944;BME280;13742;49.306;8.636;2023-04-30T05:26:16;100894.84;;;12.62;76.07
25944;BME280;13742;49.306;8.636;2023-04-30T05:27:16;100892.05;;;12.63;76.02
25944;BME280;13742;49.306;8.636;2023-04-30T05:28:16;100893.59;;;12.65;76.19
25944;BME280;13742;49.306;8.636;2023-04-30T05:29:16;100894.41;;;12.65;75.45
25944;BME280;13742;49.306;8.636;2023-04-30T05:30:16;100892.15;;;12.65;75.54
25944;BME280;13742;49.306;8.636;2023-04-30T05:31:16;100893.89;;;12.66;75.50
25944;BME280;13742;49.306;8.636;2023-04-30T05:32:16;100894.77;;;12.68;75.73
25944;BME280;13742;49.306;8.636;2023-04-30T05:33:16;100898.32;;;12.69;75.61